Terminal Aerodrome Forecast
Issued by NWS

Home | Current Version | Previous Version | Text Only | Print | Product List | Glossary Off
Versions: 1 2 3 4 5 6 7 8 9 10 11 12 13 14 15 16 17 18 19 20 21 22 23 24 25 26 27 28 29 30

000
FTUS43 KABR 281700
TAFATY
TAF
KATY 281739Z 2818/2918 18008KT P6SM FEW080
     FM282200 04008KT P6SM -SHRA BKN050
     FM290600 04011KT P6SM -SHRA OVC015
     FM291000 04013KT P6SM OVC015
      AMD NOT SKED=

USA.gov is the U.S. government's official web portal to all federal, state and local government web resources and services.